Raleigh County Memorial Airport Beckley US
ICAO: KBKW
IATA: BKW
Category: Medium
Scheduled Services: Yes

Elevation: 2504 ft
TransAlt. 18000 ft.

Airport Communications:
CHARLESTON APP/DEP:118.95
ASOS:121.55
AWOS 3:124.65
ELKINS RDO:117.7
CTAF/UNICOM:123

KBKW Zoom In..

If you have problems with the map follow the link
https://www.worldairports.se/pages/airport.php?
ICAO=KBKW

Runways:

(A) RW 01 length 6750 ft width 150 ft
---- / hdg 13

(B) RW 10 length 5001 ft width 100 ft
---- / hdg 103

(C) RW 19 length 6750 ft width 150 ft
ILS 111.70 / hdg 193

(D) RW 28 length 5001 ft width 100 ft
---- / hdg 283

Location; KBKW
Day. 23 / Time. 17.51 Zulu
* Altimeter: 30.15
* Temperature: 15° c. 59°f.
* Wind from: 310° Speed 13 kn with Gusts up to 22 kn.
Dewpoint: 01° c.
Visibility: 10 Statute Miles.
Clouds: Clear (automated report).

KBKW 231751Z AUTO 31013G22KT 270V340 10SM CLR 15/01 A3015 RMK AO2 SLP205 T01500011 10150 20056 58019 TSNO


Wind From 310°
Speed 13 kn.

 
 
jpsmedia.com for Web Design worldairports.se 2018   terms of use